Thomasboro, Illinois
Current Conditions -  °F | °C
As of 4:50 AM on Tuesday 21 Oct 2014 (Local Time) from KTIP Reporting Station
Haze Haze  
Wind Chill: 44°   Ceiling: 5000
Heat Index: 47°   Visibility: 5mi
Dew Point: 44°   Wind: 5mph
Humidity: 90%   Direction: 320°NW
Pressure: 30.05"   Gusts: NA
Location:  40.24°N, 88.18°W
Report Text: KTIP 210950Z AUTO 32004KT 5SM BR BKN050 08/07 A3005 RMK AO2 T00810066
Loading
Personal Weather Stations






























Interactive Weather Map
Tropical Storm Tracking
New forecast layout! Learn more

10-Day Weather Forecast

Advertisements
Track Severe Weather on mobile